createdAt,value
2019-05-17T00:47:29.533Z,13.17
2019-05-17T00:50:12.996Z,13.27
2019-05-17T00:52:56.610Z,26.23
2019-05-17T00:55:39.366Z,5.73
2019-05-17T00:58:22.160Z,14.63
2019-05-17T01:01:07.893Z,13.13
2019-05-17T01:03:49.235Z,17.97
2019-05-17T01:06:32.010Z,14.67
2019-05-17T01:09:16.928Z,10.80
2019-05-17T01:11:59.405Z,17.30
2019-05-17T01:14:42.315Z,13.77
2019-05-17T01:17:26.956Z,11.63
2019-05-17T01:20:10.231Z,12.83
2019-05-17T01:22:53.240Z,8.13
2019-05-17T01:25:36.703Z,7.70
2019-05-17T01:28:19.883Z,5.27
2019-05-17T01:31:02.793Z,8.50
2019-05-17T01:33:47.047Z,10.63
2019-05-17T01:36:29.876Z,13.70
2019-05-17T01:39:17.670Z,16.60
2019-05-17T01:41:57.419Z,14.70
2019-05-17T01:44:40.251Z,8.53
2019-05-17T01:47:23.208Z,7.93
2019-05-17T01:50:06.832Z,17.23
2019-05-17T01:52:51.284Z,18.73
2019-05-17T01:55:34.448Z,14.47
2019-05-17T01:58:17.691Z,15.63
2019-05-17T02:01:00.478Z,10.63
2019-05-17T02:03:43.445Z,19.03
2019-05-17T02:06:27.085Z,23.90
2019-05-17T02:09:11.093Z,21.13
2019-05-17T02:11:53.973Z,13.60
2019-05-17T02:14:37.427Z,16.57
2019-05-17T02:17:20.530Z,12.87
2019-05-17T02:20:03.392Z,11.63
2019-05-17T02:22:47.332Z,21.00
2019-05-17T02:25:30.726Z,11.50
2019-05-17T02:28:13.847Z,17.03
2019-05-17T02:30:56.697Z,14.87
2019-05-17T02:33:42.771Z,18.43
2019-05-17T02:36:23.836Z,14.67
2019-05-17T02:39:07.599Z,20.83
2019-05-17T02:41:53.044Z,12.50
2019-05-17T02:44:34.827Z,15.43
2019-05-17T02:47:17.789Z,10.37
2019-05-17T02:50:00.561Z,13.53
2019-05-17T02:52:44.290Z,17.87
2019-05-17T02:55:27.307Z,19.87
2019-05-17T02:58:12.631Z,13.17
2019-05-17T03:00:54.960Z,9.50
2019-05-17T03:03:37.990Z,10.70
2019-05-17T03:06:22.806Z,16.00
2019-05-17T03:09:06.338Z,4.17
2019-05-17T03:11:48.890Z,18.63
2019-05-17T03:14:32.770Z,10.13
2019-05-17T03:17:15.742Z,12.43
2019-05-17T03:19:58.633Z,11.20
2019-05-17T03:22:44.014Z,13.27
2019-05-17T03:25:26.181Z,10.77
2019-05-17T03:28:08.810Z,12.77
2019-05-17T03:30:56.246Z,7.07
2019-05-17T03:33:37.457Z,13.57
2019-05-17T03:36:25.531Z,12.00
2019-05-17T03:39:05.464Z,20.23
2019-05-17T03:41:48.731Z,12.33
2019-05-17T03:44:33.306Z,9.40
2019-05-17T03:47:16.047Z,6.50
2019-05-17T03:49:58.862Z,10.47
2019-05-17T03:52:44.523Z,7.97
2019-05-17T03:55:26.228Z,6.13
2019-05-17T03:58:09.375Z,6.27
2019-05-17T04:00:53.412Z,5.30
2019-05-17T04:03:36.443Z,7.80
2019-05-17T04:06:19.623Z,6.33
2019-05-17T04:09:03.621Z,9.20
2019-05-17T04:11:46.709Z,10.60
2019-05-17T04:14:33.317Z,7.13
2019-05-17T04:17:14.175Z,6.03
2019-05-17T04:19:57.141Z,15.87
2019-05-17T04:22:39.638Z,11.80
2019-05-17T04:25:23.421Z,8.07
2019-05-17T04:28:06.292Z,12.37
2019-05-17T04:30:52.516Z,8.03
2019-05-17T04:33:34.318Z,6.37
2019-05-17T04:36:17.712Z,9.60
2019-05-17T04:39:02.499Z,7.67
2019-05-17T04:41:50.347Z,4.33
2019-05-17T04:44:32.044Z,5.70
2019-05-17T04:47:13.901Z,3.10
2019-05-17T04:49:56.527Z,5.07
2019-05-17T04:52:42.523Z,7.03
2019-05-17T04:55:23.842Z,3.13
2019-05-17T04:58:06.852Z,7.67
2019-05-17T05:00:49.619Z,6.97
2019-05-17T05:03:32.840Z,11.63
2019-05-17T05:06:15.586Z,9.90
2019-05-17T05:08:58.568Z,8.90
2019-05-17T05:11:53.353Z,9.17
2019-05-17T05:14:26.146Z,5.57
2019-05-17T05:17:08.886Z,7.37
2019-05-17T05:19:53.057Z,4.57
2019-05-17T05:22:36.049Z,7.37
2019-05-17T05:25:21.558Z,4.00
2019-05-17T05:28:03.323Z,9.70
2019-05-17T05:30:46.527Z,9.07
2019-05-17T05:33:29.376Z,3.63
2019-05-17T05:36:12.569Z,8.20
2019-05-17T05:38:55.347Z,9.17
2019-05-17T05:41:38.508Z,6.50
2019-05-17T05:44:21.615Z,5.10
2019-05-17T05:47:04.909Z,7.13
2019-05-17T05:49:47.799Z,6.97
2019-05-17T05:52:32.380Z,4.00
2019-05-17T05:55:15.388Z,8.30
2019-05-17T05:57:58.826Z,9.03
2019-05-17T06:00:42.629Z,2.87
2019-05-17T06:03:26.606Z,3.27
2019-05-17T06:06:09.411Z,6.47
2019-05-17T06:08:52.352Z,6.60
2019-05-17T06:11:35.184Z,3.60
2019-05-17T06:14:18.555Z,2.00
2019-05-17T06:17:02.962Z,4.20
2019-05-17T06:19:46.080Z,2.97
2019-05-17T06:22:28.764Z,5.23
2019-05-17T06:25:14.708Z,7.17
2019-05-17T06:27:56.533Z,6.30
2019-05-17T06:30:39.631Z,5.20
2019-05-17T06:33:30.569Z,3.83
2019-05-17T06:36:08.105Z,3.83
2019-05-17T06:38:52.625Z,11.87
2019-05-17T06:41:35.321Z,12.70
2019-05-17T06:44:17.969Z,12.07
2019-05-17T06:47:02.688Z,8.13
2019-05-17T06:49:45.741Z,5.63
2019-05-17T06:52:28.704Z,6.70
2019-05-17T06:55:12.888Z,2.67
2019-05-17T06:57:56.106Z,5.97
2019-05-17T07:00:40.425Z,4.40
2019-05-17T07:03:23.355Z,3.97
2019-05-17T07:06:07.613Z,7.77
2019-05-17T07:08:50.721Z,6.60
2019-05-17T07:11:33.359Z,4.77
2019-05-17T07:14:16.299Z,8.57
2019-05-17T07:16:59.613Z,2.40
2019-05-17T07:19:42.638Z,2.63
2019-05-17T07:22:25.648Z,8.87
2019-05-17T07:25:10.813Z,2.90
2019-05-17T07:27:53.696Z,2.47
2019-05-17T07:30:36.434Z,7.63
2019-05-17T07:33:19.872Z,9.00
2019-05-17T07:36:02.944Z,5.30
2019-05-17T07:38:45.855Z,5.27
2019-05-17T07:41:29.886Z,9.37
2019-05-17T07:44:12.580Z,2.77
2019-05-17T07:46:55.416Z,8.40
2019-05-17T07:49:40.335Z,5.77
2019-05-17T07:52:22.684Z,3.53
2019-05-17T07:55:05.661Z,3.90
2019-05-17T07:57:49.567Z,3.00
2019-05-17T08:00:32.720Z,7.57
2019-05-17T08:03:15.706Z,2.60
2019-05-17T08:06:00.029Z,2.63
2019-05-17T08:08:42.663Z,4.13
2019-05-17T08:11:25.536Z,2.67
2019-05-17T08:14:10.396Z,6.50
2019-05-17T08:16:52.663Z,4.03
2019-05-17T08:19:35.452Z,4.47
2019-05-17T08:22:20.015Z,4.73
2019-05-17T08:25:02.320Z,2.60
2019-05-17T08:27:45.160Z,2.10
2019-05-17T08:30:30.279Z,4.87
2019-05-17T08:33:12.767Z,3.83
2019-05-17T08:35:55.540Z,9.00
2019-05-17T08:38:39.341Z,6.40
2019-05-17T08:41:22.525Z,9.27
2019-05-17T08:44:05.465Z,7.40
2019-05-17T08:46:50.062Z,3.27
2019-05-17T08:49:32.367Z,6.27
2019-05-17T08:52:15.240Z,5.63
2019-05-17T08:55:00.180Z,4.70
2019-05-17T08:57:42.373Z,4.80
2019-05-17T09:00:25.747Z,9.67
2019-05-17T09:03:10.753Z,2.67
2019-05-17T09:05:53.204Z,3.07
2019-05-17T09:08:36.117Z,8.53
2019-05-17T09:11:19.692Z,9.07
2019-05-17T09:14:02.895Z,6.03
2019-05-17T09:16:46.468Z,8.83
2019-05-17T09:19:29.955Z,3.10
2019-05-17T09:22:12.695Z,8.97
2019-05-17T09:24:55.704Z,7.43
2019-05-17T09:27:39.655Z,8.57
2019-05-17T09:30:25.684Z,2.83
2019-05-17T09:33:11.000Z,9.07
2019-05-17T09:35:53.397Z,10.20
2019-05-17T09:38:36.151Z,8.60
2019-05-17T09:41:20.064Z,3.53
2019-05-17T09:44:12.959Z,4.33
2019-05-17T09:46:47.313Z,4.53
2019-05-17T09:49:30.111Z,5.17
2019-05-17T09:52:13.472Z,4.57
2019-05-17T09:54:56.234Z,8.87
2019-05-17T09:57:40.975Z,7.33
2019-05-17T10:00:23.848Z,3.23
2019-05-17T10:03:09.525Z,5.07
2019-05-17T10:05:51.845Z,13.23
2019-05-17T10:08:35.165Z,6.30
2019-05-17T10:11:20.068Z,6.57
2019-05-17T10:14:02.559Z,5.77
2019-05-17T10:16:45.377Z,3.97
2019-05-17T10:19:29.422Z,4.50
2019-05-17T10:22:12.147Z,4.47
2019-05-17T10:24:54.940Z,8.30
2019-05-17T10:27:37.698Z,8.93
2019-05-17T10:30:21.106Z,5.13
2019-05-17T10:33:03.869Z,6.47
2019-05-17T10:35:46.880Z,15.50
2019-05-17T10:38:30.041Z,4.43
2019-05-17T10:41:13.042Z,6.97
2019-05-17T10:43:55.651Z,11.40
2019-05-17T10:46:40.722Z,8.90
2019-05-17T10:49:23.298Z,8.67
2019-05-17T10:52:06.138Z,7.40
2019-05-17T10:54:48.420Z,6.77
2019-05-17T10:57:31.282Z,2.73
2019-05-17T11:00:14.998Z,11.57
2019-05-17T11:03:00.485Z,12.10
2019-05-17T11:05:42.926Z,11.50
2019-05-17T11:08:26.008Z,7.47
2019-05-17T11:11:10.319Z,8.33
2019-05-17T11:13:53.553Z,14.40
2019-05-17T11:16:36.403Z,13.37
2019-05-17T11:19:19.429Z,18.30
2019-05-17T11:22:02.244Z,32.30
2019-05-17T11:24:45.224Z,22.47
2019-05-17T11:27:27.980Z,41.53
2019-05-17T11:30:11.187Z,23.53
2019-05-17T11:32:54.060Z,19.40
2019-05-17T11:35:37.322Z,22.43
2019-05-17T11:38:20.005Z,27.83
2019-05-17T11:41:19.793Z,32.53
2019-05-17T11:43:47.502Z,31.27
2019-05-17T11:46:36.305Z,29.63
2019-05-17T11:49:14.798Z,50.80
2019-05-17T11:51:57.809Z,55.10
2019-05-17T11:54:40.563Z,54.60
2019-05-17T11:57:23.543Z,49.47
2019-05-17T12:00:06.360Z,42.03
2019-05-17T12:02:49.171Z,37.50
2019-05-17T12:05:32.212Z,21.27
2019-05-17T12:08:15.261Z,37.70
2019-05-17T12:10:58.049Z,34.00
2019-05-17T12:13:43.533Z,27.37
2019-05-17T12:16:25.962Z,32.63
2019-05-17T12:19:09.010Z,42.53
2019-05-17T12:21:51.990Z,16.70
2019-05-17T12:24:35.081Z,25.47
2019-05-17T12:27:17.959Z,11.43
2019-05-17T12:30:01.209Z,11.03
2019-05-17T12:32:44.498Z,13.20
2019-05-17T12:35:27.458Z,27.07
2019-05-17T12:38:10.294Z,14.10
2019-05-17T12:40:53.650Z,17.07
2019-05-17T12:43:36.262Z,11.90
2019-05-17T12:46:19.176Z,11.97
2019-05-17T12:49:02.529Z,19.03
2019-05-17T12:51:45.454Z,20.57
2019-05-17T12:54:28.166Z,7.27
2019-05-17T12:57:11.198Z,16.20
2019-05-17T12:59:53.917Z,8.90
2019-05-17T13:02:37.059Z,8.77
2019-05-17T13:05:19.778Z,15.73
2019-05-17T13:08:03.245Z,18.67
2019-05-17T13:10:46.028Z,10.17
2019-05-17T13:13:28.765Z,17.93
2019-05-17T13:16:17.852Z,7.07
2019-05-17T13:18:55.580Z,4.90
2019-05-17T13:21:38.586Z,8.37
2019-05-17T13:24:21.544Z,4.17
2019-05-17T13:27:04.278Z,13.27
2019-05-17T13:29:47.299Z,8.17
2019-05-17T13:32:30.043Z,13.73
2019-05-17T13:35:13.453Z,9.13
2019-05-17T13:37:56.314Z,6.43
2019-05-17T13:40:40.039Z,7.30
2019-05-17T13:43:24.532Z,10.27
2019-05-17T13:46:08.285Z,7.73
2019-05-17T13:48:51.266Z,12.80
2019-05-17T13:51:34.357Z,2.97
2019-05-17T13:54:17.490Z,4.07
2019-05-17T13:57:00.410Z,6.03
2019-05-17T13:59:43.206Z,2.80
2019-05-17T14:02:26.136Z,4.87
2019-05-17T14:05:09.672Z,6.27
2019-05-17T14:07:53.265Z,4.33
2019-05-17T14:10:35.877Z,5.73
2019-05-17T14:13:19.107Z,5.17
2019-05-17T14:16:01.894Z,5.23
2019-05-17T14:18:44.971Z,3.63
2019-05-17T14:21:27.885Z,4.00
2019-05-17T14:24:11.985Z,2.47
2019-05-17T14:26:55.354Z,6.57
2019-05-17T14:29:38.307Z,1.63
2019-05-17T14:32:21.054Z,6.50
2019-05-17T14:35:04.149Z,8.10
2019-05-17T14:37:47.061Z,4.97
2019-05-17T14:41:04.157Z,10.17
2019-05-17T14:43:14.493Z,3.67
2019-05-17T14:45:57.618Z,4.73
2019-05-17T14:48:40.555Z,7.17
2019-05-17T14:51:23.453Z,4.33
2019-05-17T14:54:06.306Z,6.47
2019-05-17T14:56:49.485Z,8.70
2019-05-17T14:59:32.590Z,14.50
2019-05-17T15:02:15.516Z,10.27
